Time;durP1;ratioP1;P1;durP2;ratioP2;P2;SDS_P1;SDS_P2;PMS_P1;PMS_P2;Temp;Humidity;BMP_temperature;BMP_pressure;BME280_temperature;BME280_humidity;BME280_pressure;Samples;Min_cycle;Max_cycle;Signal;HPM_P1;HPM_P2
2022/02/21 00:02:23;;;;;;;;;;;;;;;2.09;69.38;97511.59;5054571;28;19929;-60
2022/02/21 00:04:49;;;;;;;;;;;;;;;2.11;68.55;97516.56;5054604;28;19929;-60
2022/02/21 00:07:14;;;;;;;;;;;;;;;2.00;69.26;97520.78;5055007;28;19924;-60
2022/02/21 00:09:40;;;;;;;;;;;;;;;2.02;68.80;97514.28;5054422;28;19972;-59
2022/02/21 00:12:05;;;;;;;;;;;;;;;2.07;69.39;97516.25;5054804;28;20019;-59
2022/02/21 00:14:31;;;;;;;;;;;;;;;2.06;68.74;97514.66;5053135;28;20291;-59
2022/02/21 00:16:57;;;;;;;;;;;;;;;2.07;68.63;97513.63;5052665;28;19920;-59
2022/02/21 00:19:22;;;;;;;;;;;;;;;2.07;68.08;97508.41;5054497;28;19936;-60
2022/02/21 00:21:48;;;;;;;;;;;;;;;2.09;68.26;97508.16;5053161;28;19975;-60
2022/02/21 00:24:13;;;;;;;;;;;;;;;2.13;68.04;97514.53;5054500;28;20027;-59
2022/02/21 00:26:39;;;;;;;;;;;;;;;2.12;68.67;97515.53;5052952;28;19972;-60
2022/02/21 00:29:07;;;;;;;;;;;;;;;2.10;69.25;97512.38;5054359;28;19935;-59
2022/02/21 00:31:33;;;;;;;;;;;;;;;2.04;69.57;97520.09;5069285;28;19929;-59
2022/02/21 00:33:59;;;;;;;;;;;;;;;1.96;70.99;97515.22;5066798;28;20306;-60
2022/02/21 00:36:25;;;;;;;;;;;;;;;1.95;71.48;97507.63;5053758;28;19939;-61
2022/02/21 00:38:50;;;;;;;;;;;;;;;1.93;71.18;97501.81;5057220;28;19928;-62
2022/02/21 00:41:16;;;;;;;;;;;;;;;1.99;71.01;97504.31;5074005;28;19931;-60
2022/02/21 00:43:42;;;;;;;;;;;;;;;2.00;70.94;97495.47;5073883;28;19928;-61
2022/02/21 00:46:07;;;;;;;;;;;;;;;1.92;70.99;97487.97;5072579;28;19931;-60
2022/02/21 00:48:33;;;;;;;;;;;;;;;1.86;71.00;97493.31;5072571;28;19928;-60
2022/02/21 00:50:59;;;;;;;;;;;;;;;1.83;71.44;97491.94;5073877;28;19931;-61
2022/02/21 00:53:25;;;;;;;;;;;;;;;1.83;71.02;97484.09;5071623;28;19929;-61
2022/02/21 00:55:50;;;;;;;;;;;;;;;1.81;70.83;97486.13;5073667;28;19931;-59
2022/02/21 00:58:17;;;;;;;;;;;;;;;1.77;71.28;97485.00;5073476;28;19935;-61
2022/02/21 01:00:43;;;;;;;;;;;;;;;1.69;71.29;97477.50;5073460;28;19925;-60
2022/02/21 01:03:08;;;;;;;;;;;;;;;1.67;71.10;97477.72;5072077;28;19928;-62
2022/02/21 01:05:34;;;;;;;;;;;;;;;1.62;70.73;97469.78;5073387;28;19924;-59
2022/02/21 01:08:00;;;;;;;;;;;;;;;1.67;71.13;97471.72;5073704;28;19935;-61
2022/02/21 01:10:26;;;;;;;;;;;;;;;1.71;71.25;97467.63;5073391;28;19925;-60
2022/02/21 01:12:52;;;;;;;;;;;;;;;1.74;70.56;97475.81;5073340;28;20023;-61
2022/02/21 01:15:17;;;;;;;;;;;;;;;1.67;70.66;97469.09;5073280;28;20015;-60
2022/02/21 01:17:43;;;;;;;;;;;;;;;1.64;70.87;97465.13;5072816;28;20455;-61
2022/02/21 01:20:12;;;;;;;;;;;;;;;1.69;70.60;97462.63;5072205;28;19970;-60
2022/02/21 01:22:38;;;;;;;;;;;;;;;1.72;70.66;97462.16;5073522;28;20479;-59
2022/02/21 01:25:04;;;;;;;;;;;;;;;1.74;70.17;97464.56;5072020;28;20034;-60
2022/02/21 01:27:30;;;;;;;;;;;;;;;1.69;70.13;97456.63;5071901;28;19971;-60
2022/02/21 01:29:55;;;;;;;;;;;;;;;1.67;70.07;97446.38;5073181;28;19964;-59
2022/02/21 01:32:21;;;;;;;;;;;;;;;1.69;69.90;97448.78;5071804;28;19924;-60
2022/02/21 01:34:47;;;;;;;;;;;;;;;1.73;69.83;97452.50;5054858;28;20457;-61
2022/02/21 01:37:12;;;;;;;;;;;;;;;1.69;69.69;97446.97;5052655;28;19929;-60
2022/02/21 01:39:38;;;;;;;;;;;;;;;1.63;70.08;97444.47;5053011;28;19956;-60
2022/02/21 01:42:04;;;;;;;;;;;;;;;1.59;69.57;97455.38;5057357;28;20409;-60
2022/02/21 01:44:33;;;;;;;;;;;;;;;1.70;69.90;97452.97;5071661;28;19973;-59
2022/02/21 01:46:59;;;;;;;;;;;;;;;1.69;69.14;97454.78;5053043;28;20393;-61
2022/02/21 01:49:25;;;;;;;;;;;;;;;1.70;69.67;97447.75;5051377;28;19974;-62
2022/02/21 01:51:50;;;;;;;;;;;;;;;1.65;69.94;97452.84;5052802;28;19932;-59
2022/02/21 01:54:16;;;;;;;;;;;;;;;1.65;69.66;97456.28;5034783;28;19974;-62
2022/02/21 01:56:41;;;;;;;;;;;;;;;1.57;69.76;97452.19;5051109;28;20341;-59
2022/02/21 01:59:07;;;;;;;;;;;;;;;1.63;69.58;97462.75;5053252;28;19928;-61
2022/02/21 02:01:33;;;;;;;;;;;;;;;1.71;69.42;97450.16;5063998;28;19935;-60
2022/02/21 02:03:59;;;;;;;;;;;;;;;1.76;68.80;97445.00;5071007;28;19937;-62
2022/02/21 02:06:25;;;;;;;;;;;;;;;1.78;69.14;97444.78;5071008;28;19925;-61
2022/02/21 02:08:50;;;;;;;;;;;;;;;1.73;68.96;97457.75;5060959;28;19936;-61
2022/02/21 02:11:16;;;;;;;;;;;;;;;1.77;69.15;97451.06;5052368;28;20400;-60
2022/02/21 02:13:42;;;;;;;;;;;;;;;1.72;68.86;97449.09;5052425;28;19928;-60
2022/02/21 02:16:07;;;;;;;;;;;;;;;1.67;68.97;97442.97;5052256;28;19924;-60
2022/02/21 02:18:33;;;;;;;;;;;;;;;1.67;69.34;97442.97;5051998;28;19932;-60
2022/02/21 02:20:58;;;;;;;;;;;;;;;1.69;69.45;97439.13;5051757;28;19978;-61
2022/02/21 02:23:24;;;;;;;;;;;;;;;1.71;68.79;97441.53;5050642;28;20385;-62
2022/02/21 02:25:49;;;;;;;;;;;;;;;1.62;69.00;97448.06;5050938;28;20369;-59
2022/02/21 02:28:15;;;;;;;;;;;;;;;1.60;69.20;97445.72;5034118;28;19951;-59
2022/02/21 02:30:40;;;;;;;;;;;;;;;1.62;68.93;97448.91;5052065;28;19925;-61
2022/02/21 02:33:06;;;;;;;;;;;;;;;1.58;69.53;97448.53;5051891;28;19928;-61
2022/02/21 02:35:32;;;;;;;;;;;;;;;1.55;69.29;97441.16;5051685;28;19924;-61
2022/02/21 02:37:58;;;;;;;;;;;;;;;1.58;69.46;97448.53;5051692;28;19936;-60
2022/02/21 02:40:24;;;;;;;;;;;;;;;1.61;69.59;97443.88;5052347;28;19925;-59
2022/02/21 02:42:50;;;;;;;;;;;;;;;1.68;68.89;97444.59;5058723;28;19963;-61
2022/02/21 02:45:16;;;;;;;;;;;;;;;1.64;68.88;97435.59;5070485;28;20293;-59
2022/02/21 02:47:41;;;;;;;;;;;;;;;1.61;69.09;97434.22;5072292;28;20434;-58
2022/02/21 02:50:07;;;;;;;;;;;;;;;1.54;69.34;97442.19;5071399;28;19929;-62
2022/02/21 02:52:33;;;;;;;;;;;;;;;1.62;68.83;97432.41;5070684;28;20389;-60
2022/02/21 02:54:58;;;;;;;;;;;;;;;1.70;69.03;97432.88;5071629;28;19936;-61
2022/02/21 02:57:24;;;;;;;;;;;;;;;1.69;68.82;97430.50;5070559;28;20027;-60
2022/02/21 02:59:49;;;;;;;;;;;;;;;1.69;68.99;97430.50;5071544;28;19968;-59
2022/02/21 03:02:15;;;;;;;;;;;;;;;1.73;68.33;97436.84;5070111;28;19928;-60
2022/02/21 03:04:40;;;;;;;;;;;;;;;1.78;68.60;97431.72;5070596;28;19935;-59
2022/02/21 03:07:06;;;;;;;;;;;;;;;1.74;68.84;97430.63;5071825;28;19961;-59
2022/02/21 03:09:32;;;;;;;;;;;;;;;1.75;68.46;97435.59;5071261;28;20397;-60
2022/02/21 03:11:57;;;;;;;;;;;;;;;1.79;68.61;97420.25;5069481;28;20332;-60
2022/02/21 03:14:23;;;;;;;;;;;;;;;1.78;68.67;97429.91;5050398;28;19932;-62
2022/02/21 03:16:49;;;;;;;;;;;;;;;1.79;68.20;97426.28;5050001;28;19931;-60
2022/02/21 03:19:14;;;;;;;;;;;;;;;1.71;68.60;97418.81;5051731;28;20390;-60
2022/02/21 03:21:40;;;;;;;;;;;;;;;1.73;68.38;97421.97;5049338;28;19924;-59
2022/02/21 03:24:05;;;;;;;;;;;;;;;1.76;68.52;97418.09;5071341;28;19952;-60
2022/02/21 03:26:31;;;;;;;;;;;;;;;1.65;68.65;97418.91;5071567;28;19932;-58
2022/02/21 03:28:56;;;;;;;;;;;;;;;1.63;69.14;97421.75;5070076;28;19929;-59
2022/02/21 03:31:22;;;;;;;;;;;;;;;1.66;69.04;97420.50;5070225;28;20062;-60
2022/02/21 03:33:48;;;;;;;;;;;;;;;1.77;68.63;97417.09;5053419;28;19978;-59
2022/02/21 03:36:13;;;;;;;;;;;;;;;1.73;68.98;97421.16;5072774;28;20301;-61
2022/02/21 03:38:39;;;;;;;;;;;;;;;1.73;68.81;97418.56;5075187;28;20308;-60
2022/02/21 03:41:04;;;;;;;;;;;;;;;1.80;68.75;97414.03;5074968;28;20018;-60
2022/02/21 03:43:30;;;;;;;;;;;;;;;1.85;68.30;97415.94;5074827;28;19936;-59
2022/02/21 03:45:56;;;;;;;;;;;;;;;1.76;68.67;97412.88;5075247;28;19924;-59
2022/02/21 03:48:21;;;;;;;;;;;;;;;1.84;68.76;97412.53;5074827;28;19974;-62
2022/02/21 03:50:47;;;;;;;;;;;;;;;1.78;69.11;97411.63;5075038;28;20378;-58
2022/02/21 03:53:13;;;;;;;;;;;;;;;1.78;69.44;97408.22;5075040;28;20025;-60
2022/02/21 03:55:38;;;;;;;;;;;;;;;1.71;70.16;97410.97;5074508;28;19924;-60
2022/02/21 03:58:04;;;;;;;;;;;;;;;1.55;70.66;97412.44;5074827;28;19928;-60
2022/02/21 04:00:30;;;;;;;;;;;;;;;1.53;71.80;97424.94;5073448;28;20027;-60
2022/02/21 04:02:55;;;;;;;;;;;;;;;1.50;72.44;97420.16;5074615;28;20367;-61
2022/02/21 04:05:21;;;;;;;;;;;;;;;1.48;71.98;97416.97;5073463;28;20020;-61
2022/02/21 04:07:46;;;;;;;;;;;;;;;1.50;72.79;97416.75;5074778;28;20402;-60
2022/02/21 04:10:12;;;;;;;;;;;;;;;1.52;73.58;97420.72;5074400;28;20389;-60
2022/02/21 04:12:38;;;;;;;;;;;;;;;1.55;72.50;97415.03;5074686;28;19982;-60
2022/02/21 04:15:04;;;;;;;;;;;;;;;1.58;72.79;97416.41;5073069;28;20313;-60
2022/02/21 04:17:38;;;;;;;;;;;;;;;1.49;72.87;97415.94;5072753;28;20447;-59
2022/02/21 04:20:04;;;;;;;;;;;;;;;1.48;72.98;97416.19;5067688;28;19975;-60
2022/02/21 04:22:30;;;;;;;;;;;;;;;1.40;73.09;97417.31;5054683;28;20354;-61
2022/02/21 04:24:56;;;;;;;;;;;;;;;1.41;72.97;97415.50;5054403;28;20027;-60
2022/02/21 04:27:21;;;;;;;;;;;;;;;1.42;73.29;97419.72;5054564;28;20373;-60
2022/02/21 04:29:47;;;;;;;;;;;;;;;1.50;73.19;97420.16;5054193;28;19936;-60
2022/02/21 04:32:12;;;;;;;;;;;;;;;1.43;72.48;97422.09;5052665;28;19935;-61
2022/02/21 04:34:38;;;;;;;;;;;;;;;1.40;72.99;97416.53;5065607;28;19932;-60
2022/02/21 04:37:03;;;;;;;;;;;;;;;1.39;72.77;97423.56;5089248;28;19924;-58
2022/02/21 04:39:29;;;;;;;;;;;;;;;1.37;72.79;97415.16;5072700;28;19929;-60
2022/02/21 04:41:54;;;;;;;;;;;;;;;1.27;73.00;97415.72;5052741;28;19983;-59
2022/02/21 04:44:20;;;;;;;;;;;;;;;1.32;73.64;97422.88;5053837;28;19967;-64
2022/02/21 04:46:48;;;;;;;;;;;;;;;1.30;73.07;97425.72;5053557;28;20059;-60
2022/02/21 04:49:13;;;;;;;;;;;;;;;1.34;73.67;97423.44;5053732;28;19936;-60
2022/02/21 04:51:39;;;;;;;;;;;;;;;1.35;73.04;97425.03;5053738;28;20266;-60
2022/02/21 04:54:05;;;;;;;;;;;;;;;1.35;72.82;97418.00;5053188;28;20306;-62
2022/02/21 04:56:30;;;;;;;;;;;;;;;1.46;73.43;97426.06;5053501;28;19939;-60
2022/02/21 04:58:55;;;;;;;;;;;;;;;1.50;72.77;97416.75;5053332;28;20424;-60
2022/02/21 05:01:21;;;;;;;;;;;;;;;1.44;73.40;97422.88;5067844;28;19928;-64
2022/02/21 05:03:47;;;;;;;;;;;;;;;1.50;73.60;97422.78;5070263;28;20023;-62
2022/02/21 05:06:12;;;;;;;;;;;;;;;1.53;74.46;97422.31;5073447;28;20019;-60
2022/02/21 05:08:38;;;;;;;;;;;;;;;1.56;73.63;97415.84;5072718;28;19939;-60
2022/02/21 05:11:05;;;;;;;;;;;;;;;1.51;73.77;97418.34;5073221;28;19924;-60
2022/02/21 05:13:31;;;;;;;;;;;;;;;1.62;73.68;97421.97;5073345;28;19929;-60
2022/02/21 05:15:56;;;;;;;;;;;;;;;1.54;73.23;97423.13;5071420;28;19924;-59
2022/02/21 05:18:22;;;;;;;;;;;;;;;1.43;73.80;97422.09;5072902;28;20409;-61
2022/02/21 05:20:47;;;;;;;;;;;;;;;1.47;73.90;97423.25;5071658;28;19924;-61
2022/02/21 05:23:15;;;;;;;;;;;;;;;1.43;74.01;97422.09;5067788;28;20372;-61
2022/02/21 05:25:40;;;;;;;;;;;;;;;1.38;74.50;97427.19;5053431;28;19964;-60
2022/02/21 05:28:06;;;;;;;;;;;;;;;1.43;74.09;97427.31;5052940;28;20002;-61
2022/02/21 05:30:32;;;;;;;;;;;;;;;1.42;73.54;97420.50;5052699;28;19932;-60
2022/02/21 05:32:57;;;;;;;;;;;;;;;1.49;73.19;97418.56;5052687;28;20397;-62
2022/02/21 05:35:23;;;;;;;;;;;;;;;1.49;73.98;97426.41;5053461;28;20401;-60
2022/02/21 05:37:49;;;;;;;;;;;;;;;1.56;73.86;97416.66;5051307;28;19929;-60
2022/02/21 05:40:14;;;;;;;;;;;;;;;1.55;73.32;97424.69;5056092;28;20515;-61
2022/02/21 05:42:40;;;;;;;;;;;;;;;1.53;73.28;97424.13;5052827;28;20389;-62
2022/02/21 05:45:05;;;;;;;;;;;;;;;1.65;72.61;97429.34;5052402;28;19928;-61
2022/02/21 05:47:31;;;;;;;;;;;;;;;1.71;73.19;97425.84;5050757;28;19931;-61
2022/02/21 05:49:56;;;;;;;;;;;;;;;1.76;72.45;97423.31;5052107;28;19974;-60
2022/02/21 05:52:22;;;;;;;;;;;;;;;1.73;72.49;97427.19;5052829;28;20359;-62
2022/02/21 05:54:48;;;;;;;;;;;;;;;1.67;72.29;97428.09;5053411;28;19929;-60
2022/02/21 05:57:13;;;;;;;;;;;;;;;1.74;72.32;97426.19;5051100;28;20349;-61
2022/02/21 05:59:39;;;;;;;;;;;;;;;1.89;72.85;97424.91;5051383;28;19936;-60
2022/02/21 06:02:04;;;;;;;;;;;;;;;2.09;71.33;97427.97;5050925;28;19964;-61
2022/02/21 06:04:30;;;;;;;;;;;;;;;2.20;70.91;97428.94;5052010;28;19928;-59
2022/02/21 06:06:55;;;;;;;;;;;;;;;2.13;71.13;97421.22;5052458;28;19921;-59
2022/02/21 06:09:21;;;;;;;;;;;;;;;2.09;70.65;97427.13;5050632;28;19928;-60
2022/02/21 06:11:47;;;;;;;;;;;;;;;2.12;70.94;97430.09;5052358;28;19920;-60
2022/02/21 06:14:12;;;;;;;;;;;;;;;2.19;70.13;97420.31;5052028;28;19939;-61
2022/02/21 06:16:40;;;;;;;;;;;;;;;2.25;70.11;97434.28;5051304;28;19928;-61
2022/02/21 06:19:06;;;;;;;;;;;;;;;2.33;70.13;97431.31;5036963;28;19928;-61
2022/02/21 06:21:32;;;;;;;;;;;;;;;2.36;70.26;97427.44;5070128;28;20281;-60
2022/02/21 06:23:57;;;;;;;;;;;;;;;2.35;70.71;97434.44;5060015;28;20303;-61
2022/02/21 06:26:23;;;;;;;;;;;;;;;2.39;70.27;97434.81;5050282;28;20397;-61
2022/02/21 06:28:48;;;;;;;;;;;;;;;2.48;69.64;97438.66;5055460;28;20019;-61
2022/02/21 06:31:14;;;;;;;;;;;;;;;2.43;69.69;97434.09;5066413;28;19931;-60
2022/02/21 06:33:39;;;;;;;;;;;;;;;2.41;69.93;97433.56;5055619;28;19928;-62
2022/02/21 06:36:05;;;;;;;;;;;;;;;2.25;70.08;97440.28;5051411;28;19952;-61
2022/02/21 06:38:31;;;;;;;;;;;;;;;2.25;70.20;97434.28;5051167;28;19983;-60
2022/02/21 06:40:57;;;;;;;;;;;;;;;2.31;70.35;97438.56;5051410;28;20374;-61
2022/02/21 06:43:22;;;;;;;;;;;;;;;2.41;69.85;97432.75;5051537;28;19998;-61
2022/02/21 06:45:48;;;;;;;;;;;;;;;2.43;70.19;97435.91;5053652;28;19925;-61
2022/02/21 06:48:13;;;;;;;;;;;;;;;2.40;69.96;97433.78;5051523;28;19982;-62
2022/02/21 06:50:39;;;;;;;;;;;;;;;2.52;70.67;97438.97;5051584;28;20050;-59
2022/02/21 06:53:05;;;;;;;;;;;;;;;2.53;69.00;97435.31;5056102;28;20418;-63
2022/02/21 06:55:30;;;;;;;;;;;;;;;2.57;69.00;97436.44;5052525;28;19971;-61
2022/02/21 06:57:56;;;;;;;;;;;;;;;2.72;68.28;97434.09;5050545;28;19974;-61
2022/02/21 07:00:21;;;;;;;;;;;;;;;2.73;68.32;97441.72;5067671;28;19932;-60
2022/02/21 07:02:47;;;;;;;;;;;;;;;2.77;68.55;97436.81;5052445;28;19929;-61
2022/02/21 07:05:13;;;;;;;;;;;;;;;2.92;68.83;97437.09;5051584;28;19936;-62
2022/02/21 07:07:38;;;;;;;;;;;;;;;2.98;67.78;97435.34;5070037;28;20031;-60
2022/02/21 07:10:04;;;;;;;;;;;;;;;3.17;68.73;97439.31;5060301;28;19925;-62
2022/02/21 07:12:30;;;;;;;;;;;;;;;3.19;67.45;97442.50;5068304;28;20283;-61
2022/02/21 07:14:55;;;;;;;;;;;;;;;3.12;66.71;97447.13;5075503;28;19928;-62
2022/02/21 07:17:21;;;;;;;;;;;;;;;3.06;67.38;97444.63;5062330;28;19931;-58
2022/02/21 07:19:49;;;;;;;;;;;;;;;3.17;66.81;97443.75;5020812;28;19929;-62
2022/02/21 07:22:15;;;;;;;;;;;;;;;3.31;66.38;97455.53;5064704;28;19932;-61
2022/02/21 07:24:41;;;;;;;;;;;;;;;3.32;66.11;97437.97;5050696;28;19975;-61
2022/02/21 07:27:06;;;;;;;;;;;;;;;3.19;66.88;97446.94;5035799;28;20352;-59
2022/02/21 07:29:33;;;;;;;;;;;;;;;3.31;66.89;97444.25;5035064;28;20004;-60
2022/02/21 07:31:59;;;;;;;;;;;;;;;3.28;66.71;97439.50;5068059;28;20381;-60
2022/02/21 07:34:24;;;;;;;;;;;;;;;3.38;66.96;97440.47;5053845;28;19935;-60
2022/02/21 07:36:50;;;;;;;;;;;;;;;3.52;66.32;97445.38;5054557;28;20019;-60
2022/02/21 07:39:17;;;;;;;;;;;;;;;3.55;66.84;97444.88;5054600;28;19928;-59
2022/02/21 07:41:43;;;;;;;;;;;;;;;3.54;66.19;97454.56;5057685;28;19929;-59
2022/02/21 07:44:08;;;;;;;;;;;;;;;3.52;65.51;97454.00;5072423;28;19982;-61
2022/02/21 07:46:34;;;;;;;;;;;;;;;3.54;66.13;97457.19;5074999;28;19924;-59
2022/02/21 07:48:59;;;;;;;;;;;;;;;3.53;66.63;97455.63;5075026;28;20298;-64
2022/02/21 07:51:25;;;;;;;;;;;;;;;3.64;65.81;97456.53;5074716;28;19932;-62
2022/02/21 07:53:51;;;;;;;;;;;;;;;3.52;66.11;97450.59;5074604;28;19928;-64
2022/02/21 07:56:16;;;;;;;;;;;;;;;3.60;66.74;97456.25;5074281;28;19931;-60
2022/02/21 07:58:42;;;;;;;;;;;;;;;3.70;65.63;97458.19;5074383;28;19940;-64
2022/02/21 08:01:08;;;;;;;;;;;;;;;3.80;66.49;97463.59;5074388;28;20393;-66
2022/02/21 08:03:36;;;;;;;;;;;;;;;3.91;65.49;97458.50;5074659;28;19928;-62
2022/02/21 08:06:10;;;;;;;;;;;;;;;3.82;64.46;97465.97;5074700;28;19932;-61
2022/02/21 08:08:36;;;;;;;;;;;;;;;3.71;65.63;97454.56;5074341;28;20025;-62
2022/02/21 08:11:02;;;;;;;;;;;;;;;3.93;64.82;97461.69;5074441;28;19975;-62
2022/02/21 08:13:28;;;;;;;;;;;;;;;3.90;64.04;97462.94;5056375;28;19929;-60
2022/02/21 08:15:53;;;;;;;;;;;;;;;3.87;64.61;97456.34;5074469;28;19936;-61
2022/02/21 08:18:19;;;;;;;;;;;;;;;4.06;64.24;97453.47;5074153;28;20332;-61
2022/02/21 08:20:44;;;;;;;;;;;;;;;4.36;63.60;97457.53;5072671;28;20074;-62
2022/02/21 08:23:10;;;;;;;;;;;;;;;4.40;62.66;97456.78;5073645;28;19928;-61
2022/02/21 08:25:36;;;;;;;;;;;;;;;4.49;63.26;97460.53;5073035;28;20270;-62
2022/02/21 08:28:02;;;;;;;;;;;;;;;4.52;62.17;97457.44;5073982;28;20019;-63
2022/02/21 08:30:27;;;;;;;;;;;;;;;4.58;62.04;97458.28;5073990;28;19925;-62
2022/02/21 08:32:53;;;;;;;;;;;;;;;4.54;61.74;97458.00;5074161;28;19933;-63
2022/02/21 08:35:19;;;;;;;;;;;;;;;4.55;61.91;97459.56;5073986;28;19977;-61
2022/02/21 08:37:44;;;;;;;;;;;;;;;4.63;62.32;97463.59;5073770;28;19943;-62
2022/02/21 08:40:11;;;;;;;;;;;;;;;4.63;61.40;97462.81;5073997;28;19924;-61
2022/02/21 08:42:38;;;;;;;;;;;;;;;4.66;61.10;97472.81;5074101;28;19931;-60
2022/02/21 08:45:06;;;;;;;;;;;;;;;4.72;61.17;97461.31;5073895;28;19933;-61
2022/02/21 08:47:32;;;;;;;;;;;;;;;4.69;61.43;97478.34;5074033;28;19925;-59
2022/02/21 08:49:58;;;;;;;;;;;;;;;4.73;59.99;97462.91;5073515;28;19935;-61
2022/02/21 08:52:23;;;;;;;;;;;;;;;4.87;59.72;97463.31;5073412;28;20023;-62
2022/02/21 08:54:49;;;;;;;;;;;;;;;4.89;59.33;97466.50;5073611;28;19935;-61
2022/02/21 08:57:16;;;;;;;;;;;;;;;4.85;59.43;97465.38;5072357;28;19940;-61
2022/02/21 08:59:43;;;;;;;;;;;;;;;5.15;59.13;97478.03;5073755;28;20309;-62
2022/02/21 09:02:09;;;;;;;;;;;;;;;5.61;57.14;97473.16;5073780;28;19925;-62
2022/02/21 09:04:34;;;;;;;;;;;;;;;5.62;57.40;97480.00;5073365;28;19948;-61
2022/02/21 09:07:00;;;;;;;;;;;;;;;5.61;56.09;97473.94;5072202;28;20002;-61
2022/02/21 09:09:25;;;;;;;;;;;;;;;5.54;56.02;97475.22;5072013;28;19970;-61
2022/02/21 09:11:51;;;;;;;;;;;;;;;5.51;56.43;97480.97;5072055;28;19925;-61
2022/02/21 09:14:17;;;;;;;;;;;;;;;5.24;56.98;97487.06;5071994;28;19928;-61
2022/02/21 09:16:43;;;;;;;;;;;;;;;5.06;55.67;97482.94;5072750;28;19950;-62
2022/02/21 09:19:08;;;;;;;;;;;;;;;4.83;56.49;97481.41;5046997;28;19932;-60
2022/02/21 09:21:34;;;;;;;;;;;;;;;4.99;56.17;97488.38;5048907;28;19978;-60
2022/02/21 09:23:59;;;;;;;;;;;;;;;4.98;55.30;97488.63;5050707;28;19936;-61
2022/02/21 09:26:27;;;;;;;;;;;;;;;5.15;55.91;97493.81;5048499;28;19921;-61
2022/02/21 09:28:52;;;;;;;;;;;;;;;5.35;54.57;97485.28;5049589;28;20322;-61
2022/02/21 09:31:18;;;;;;;;;;;;;;;5.35;54.82;97483.44;5048271;28;19925;-64
2022/02/21 09:33:43;;;;;;;;;;;;;;;5.30;55.47;97485.25;5029880;28;19935;-64
2022/02/21 09:36:09;;;;;;;;;;;;;;;5.20;55.55;97481.47;5048408;28;19956;-63
2022/02/21 09:38:35;;;;;;;;;;;;;;;4.95;55.30;97474.16;5049823;28;19929;-64
2022/02/21 09:41:02;;;;;;;;;;;;;;;4.78;55.83;97476.88;5049356;28;19925;-62
2022/02/21 09:43:27;;;;;;;;;;;;;;;4.93;55.64;97471.00;5049111;28;19943;-61
2022/02/21 09:46:03;;;;;;;;;;;;;;;5.14;54.22;97464.09;5064760;28;20022;-61
2022/02/21 09:48:29;;;;;;;;;;;;;;;5.26;54.14;97468.41;5068128;28;19928;-62
2022/02/21 09:50:59;;;;;;;;;;;;;;;5.35;53.28;97465.06;5065537;28;19924;-62
2022/02/21 09:53:28;;;;;;;;;;;;;;;5.28;53.43;97459.22;5068479;28;20390;-62
2022/02/21 09:55:54;;;;;;;;;;;;;;;5.14;53.54;97450.16;5067090;28;20389;-61
2022/02/21 09:58:20;;;;;;;;;;;;;;;5.04;52.94;97453.50;5069013;28;19935;-64
2022/02/21 10:00:46;;;;;;;;;;;;;;;4.98;54.22;97455.28;5065880;28;19925;-62
2022/02/21 10:03:12;;;;;;;;;;;;;;;4.76;54.22;97442.22;5061836;28;19986;-62
2022/02/21 10:05:37;;;;;;;;;;;;;;;4.71;55.06;97444.78;5061017;28;19928;-62
2022/02/21 10:08:05;;;;;;;;;;;;;;;4.70;54.79;97443.19;5070269;28;19932;-63
2022/02/21 10:10:30;;;;;;;;;;;;;;;4.65;54.84;97437.91;5069930;28;20317;-64
2022/02/21 10:13:03;;;;;;;;;;;;;;;4.65;54.97;97437.91;5067462;28;19928;-62
2022/02/21 10:15:32;;;;;;;;;;;;;;;4.76;53.95;97433.53;5069263;28;19924;-61
2022/02/21 10:18:08;;;;;;;;;;;;;;;4.73;54.45;97426.94;5050530;28;20397;-62
2022/02/21 10:20:34;;;;;;;;;;;;;;;4.66;54.92;97422.94;5050967;28;19979;-61
2022/02/21 10:23:00;;;;;;;;;;;;;;;4.64;55.38;97430.25;5031593;28;19967;-64
2022/02/21 10:25:26;;;;;;;;;;;;;;;4.53;55.85;97422.31;5053210;28;19925;-65
2022/02/21 10:27:52;;;;;;;;;;;;;;;4.63;55.28;97416.34;5048770;28;20424;-62
2022/02/21 10:30:17;;;;;;;;;;;;;;;4.58;56.30;97405.81;5050252;28;19931;-63
2022/02/21 10:32:44;;;;;;;;;;;;;;;4.68;55.95;97415.63;5050104;28;20421;-63
2022/02/21 10:35:10;;;;;;;;;;;;;;;4.72;55.00;97414.88;5068849;28;19920;-61
2022/02/21 10:37:40;;;;;;;;;;;;;;;4.83;55.00;97413.16;5068126;28;20306;-62
2022/02/21 10:40:07;;;;;;;;;;;;;;;4.86;54.27;97412.66;5062360;28;20010;-60
2022/02/21 10:42:32;;;;;;;;;;;;;;;4.75;54.36;97414.38;5049099;28;20167;-63
2022/02/21 10:45:12;;;;;;;;;;;;;;;4.81;55.16;97423.09;5059531;28;19935;-62
2022/02/21 10:47:37;;;;;;;;;;;;;;;4.68;55.48;97416.41;5068071;28;19931;-62
2022/02/21 10:50:04;;;;;;;;;;;;;;;4.82;55.06;97422.03;5067431;28;19932;-61
2022/02/21 10:52:37;;;;;;;;;;;;;;;4.79;55.81;97417.28;5068182;28;19978;-62
2022/02/21 10:55:05;;;;;;;;;;;;;;;4.82;55.75;97421.25;5046491;28;19981;-61
2022/02/21 10:57:32;;;;;;;;;;;;;;;4.83;55.53;97425.50;5067610;28;19931;-60
2022/02/21 10:59:57;;;;;;;;;;;;;;;5.02;54.52;97418.81;5055083;28;19954;-59
2022/02/21 11:02:23;;;;;;;;;;;;;;;5.05;54.59;97410.44;5053194;28;20344;-60
2022/02/21 11:04:48;;;;;;;;;;;;;;;5.13;54.30;97410.00;5047439;28;19929;-61
2022/02/21 11:07:14;;;;;;;;;;;;;;;5.28;53.91;97419.03;5046373;28;19924;-61
2022/02/21 11:09:41;;;;;;;;;;;;;;;5.15;53.94;97413.16;5049790;28;20294;-60
2022/02/21 11:12:07;;;;;;;;;;;;;;;5.28;54.57;97416.41;5047886;28;20409;-60
2022/02/21 11:14:33;;;;;;;;;;;;;;;5.23;54.70;97417.97;5063113;28;19935;-59
2022/02/21 11:17:00;;;;;;;;;;;;;;;5.44;54.34;97413.66;5045504;28;19920;-63
2022/02/21 11:19:25;;;;;;;;;;;;;;;5.47;53.18;97410.53;5047030;28;19929;-59
2022/02/21 11:21:51;;;;;;;;;;;;;;;5.24;53.95;97410.88;5046930;28;19924;-59
2022/02/21 11:24:23;;;;;;;;;;;;;;;5.22;54.82;97420.84;5045511;28;20380;-62
2022/02/21 11:26:49;;;;;;;;;;;;;;;5.26;54.00;97423.75;5065838;28;19924;-60
2022/02/21 11:29:19;;;;;;;;;;;;;;;5.38;52.99;97416.47;5066108;28;19928;-61
2022/02/21 11:31:45;;;;;;;;;;;;;;;5.46;53.96;97423.91;5065119;28;19924;-61
2022/02/21 11:34:11;;;;;;;;;;;;;;;5.41;53.56;97424.66;5050617;28;19929;-60
2022/02/21 11:36:38;;;;;;;;;;;;;;;5.46;53.56;97421.28;5029675;28;19925;-61
2022/02/21 11:39:23;;;;;;;;;;;;;;;5.56;53.55;97418.72;5045348;28;20385;-59
2022/02/21 11:42:01;;;;;;;;;;;;;;;5.64;52.87;97425.34;5047376;28;19924;-60
2022/02/21 11:44:28;;;;;;;;;;;;;;;5.67;53.22;97425.59;5046285;28;19929;-60
2022/02/21 11:47:06;;;;;;;;;;;;;;;5.63;53.01;97421.13;5047786;28;19929;-58
2022/02/21 11:49:32;;;;;;;;;;;;;;;5.73;52.79;97423.03;5044856;28;19974;-62
2022/02/21 11:51:58;;;;;;;;;;;;;;;5.65;53.12;97424.31;5046844;28;20328;-60
2022/02/21 11:54:23;;;;;;;;;;;;;;;5.59;52.53;97427.91;5045074;28;19956;-61
2022/02/21 11:56:49;;;;;;;;;;;;;;;5.67;52.64;97424.81;5048465;28;20294;-61
2022/02/21 11:59:20;;;;;;;;;;;;;;;5.53;52.71;97415.78;5049510;28;19974;-60
2022/02/21 12:01:47;;;;;;;;;;;;;;;5.43;53.11;97425.19;5051751;28;20340;-60
2022/02/21 12:04:14;;;;;;;;;;;;;;;5.36;52.59;97424.63;5043707;28;19929;-58
2022/02/21 12:06:48;;;;;;;;;;;;;;;5.18;53.58;97420.53;5050139;28;19925;-60
2022/02/21 12:09:13;;;;;;;;;;;;;;;5.19;53.84;97414.25;5031811;28;19939;-60
2022/02/21 12:11:39;;;;;;;;;;;;;;;5.32;53.34;97417.47;5051929;28;19925;-61
2022/02/21 12:14:05;;;;;;;;;;;;;;;5.38;52.54;97419.91;5049800;28;20352;-59
2022/02/21 12:16:31;;;;;;;;;;;;;;;5.19;53.02;97424.75;5039853;28;19928;-59
2022/02/21 12:18:58;;;;;;;;;;;;;;;5.07;53.78;97428.59;5049403;28;19936;-60
2022/02/21 12:21:32;;;;;;;;;;;;;;;5.01;54.22;97433.00;5068107;28;19940;-61
2022/02/21 12:24:07;;;;;;;;;;;;;;;5.17;53.26;97429.44;5058906;28;20366;-63
2022/02/21 12:26:37;;;;;;;;;;;;;;;5.23;53.73;97423.22;5050285;28;19948;-60
2022/02/21 12:29:09;;;;;;;;;;;;;;;5.16;54.37;97420.00;5055879;28;19928;-63
2022/02/21 12:31:36;;;;;;;;;;;;;;;4.86;54.42;97420.53;5067001;28;20409;-62
2022/02/21 12:34:01;;;;;;;;;;;;;;;4.86;55.21;97420.53;5070450;28;20397;-61
2022/02/21 12:36:37;;;;;;;;;;;;;;;4.63;55.00;97416.34;5051227;28;19931;-61
2022/02/21 12:39:04;;;;;;;;;;;;;;;4.72;55.64;97414.09;5054457;28;19936;-62
2022/02/21 12:41:30;;;;;;;;;;;;;;;4.71;55.36;97417.75;5049807;28;19925;-62
2022/02/21 12:44:00;;;;;;;;;;;;;;;4.68;55.91;97416.41;5053559;28;19929;-63
2022/02/21 12:46:26;;;;;;;;;;;;;;;4.54;55.89;97418.63;5049017;28;19924;-61
2022/02/21 12:48:52;;;;;;;;;;;;;;;4.64;56.09;97412.69;5031937;28;19973;-63
2022/02/21 12:51:22;;;;;;;;;;;;;;;4.82;55.54;97406.28;5051863;28;19924;-62
2022/02/21 12:54:07;;;;;;;;;;;;;;;4.72;55.76;97404.38;5052118;28;19929;-61